Impacts TAF Board
For situational awareness. Not to be used for flight planning purposes.
IDs:

KPHL - Philadelphia Intl, PA, US

Issued at 0520 UTC 22 Oct 2021
Updated at 0707 UTC 22 Oct 2021
Potential Impact None Slight Moderate High
Time0654Z 22/08Z 22/09Z 22/10Z 22/11Z 22/12Z 22/13Z 22/14Z 22/15Z 22/16Z 22/17Z 22/18Z 22/19Z 22/20Z>>
Type OBS PRVL PRVL PRVL PRVL PRVL PRVL PRVL PRVL PRVL PRVL PRVL PRVL PRVL
VIS 10 >6 >6 >6 >6 >6 >6 >6 >6 >6 >6 >6 >6 >6
CIG -- 150 90 90 90 90 90 90 80 80 80 80 80 80
Cover SCT BKN BKN BKN BKN BKN BKN BKN BKN BKN BKN BKN BKN BKN
FltCat VFR VFR VFR VFR VFR VFR VFR VFR VFR VFR VFR VFR VFR VFR
WX -- -- -- -- -- -- -- -- -- -- -- -- -- --
WDir 290 210 260 260 260 260 260 260 290 290 290 290 290 290
WSpd 8 7 7 7 7 7 7 7 8 8 8 8 8 8
WGst -- -- -- -- -- -- -- -- -- -- -- -- -- --
Raw TAF
KPHL 220520Z 2206/2312 21007KT P6SM BKN150 WS020/22040KT
  FM220900 26007KT P6SM BKN090
  FM221500 29008KT P6SM BKN080
  FM230000 32005KT P6SM BKN070
  FM230600 VRB05KT P6SM BKN070


Raw METAR
KPHL 220654Z 29008KT 10SM SCT100 18/13 A2983 RMK AO2 SLP100 T01780133
KPHL 220554Z 20006KT 10SM FEW100 FEW160 18/13 A2981 RMK AO2 SLP093 T01780128 10200 20172 56014
KPHL 220454Z 20007KT 10SM FEW100 SCT160 19/13 A2981 RMK AO2 SLP095 T01890128 402440133

METAR Board
Radar Display
Forecast Discussion
For situational awareness. Not to be used for flight planning purposes.